createdAt,value
2019-01-30T00:00:18.505Z,1.46
2019-01-30T00:01:18.536Z,1.42
2019-01-30T00:02:18.481Z,1.40
2019-01-30T00:03:18.468Z,1.32
2019-01-30T00:04:18.461Z,1.12
2019-01-30T00:05:18.449Z,1.20
2019-01-30T00:06:18.436Z,1.17
2019-01-30T00:07:18.477Z,1.10
2019-01-30T00:08:18.413Z,1.15
2019-01-30T00:09:18.407Z,1.08
2019-01-30T00:10:18.398Z,0.92
2019-01-30T00:11:18.388Z,0.94
2019-01-30T00:12:18.380Z,1.04
2019-01-30T00:13:18.413Z,1.07
2019-01-30T00:14:18.353Z,1.03
2019-01-30T00:15:18.341Z,1.08
2019-01-30T00:16:18.331Z,1.04
2019-01-30T00:17:18.324Z,1.03
2019-01-30T00:18:18.309Z,0.97
2019-01-30T00:19:18.353Z,0.89
2019-01-30T00:20:18.289Z,0.94
2019-01-30T00:21:18.285Z,1.08
2019-01-30T00:22:18.271Z,1.07
2019-01-30T00:23:18.261Z,1.02
2019-01-30T00:24:18.251Z,1.11
2019-01-30T00:25:18.292Z,1.14
2019-01-30T00:26:18.229Z,1.00
2019-01-30T00:27:18.213Z,1.04
2019-01-30T00:28:18.211Z,1.02
2019-01-30T00:29:18.198Z,1.15
2019-01-30T00:30:18.189Z,1.14
2019-01-30T00:31:18.226Z,1.10
2019-01-30T00:32:18.164Z,1.15
2019-01-30T00:33:18.158Z,1.12
2019-01-30T00:34:18.139Z,1.18
2019-01-30T00:35:18.138Z,1.15
2019-01-30T00:36:18.125Z,1.21
2019-01-30T00:37:18.171Z,1.18
2019-01-30T00:38:18.110Z,1.26
2019-01-30T00:39:18.093Z,1.26
2019-01-30T00:40:18.081Z,1.15
2019-01-30T00:41:18.071Z,1.14
2019-01-30T00:42:18.058Z,1.12
2019-01-30T00:43:18.097Z,1.10
2019-01-30T00:44:18.039Z,1.04
2019-01-30T00:45:18.029Z,1.02
2019-01-30T00:46:18.023Z,1.04
2019-01-30T00:47:18.009Z,1.07
2019-01-30T00:48:18.016Z,1.10
2019-01-30T00:49:18.032Z,1.11
2019-01-30T00:50:17.976Z,1.22
2019-01-30T00:51:17.963Z,1.24
2019-01-30T00:52:17.957Z,1.14
2019-01-30T00:53:17.944Z,1.20
2019-01-30T00:54:17.929Z,1.17
2019-01-30T00:55:17.977Z,1.12
2019-01-30T00:56:17.915Z,1.21
2019-01-30T00:57:17.899Z,1.20
2019-01-30T00:58:17.991Z,1.24
2019-01-30T00:59:17.880Z,1.36
2019-01-30T01:00:17.875Z,1.39
2019-01-30T01:01:17.911Z,1.42
2019-01-30T01:02:17.851Z,1.39
2019-01-30T01:03:17.839Z,1.38
2019-01-30T01:04:17.833Z,1.36
2019-01-30T01:05:17.818Z,1.28
2019-01-30T01:06:17.810Z,1.30
2019-01-30T01:07:17.848Z,1.26
2019-01-30T01:08:17.784Z,1.21
2019-01-30T01:09:17.789Z,1.17
2019-01-30T01:10:17.761Z,1.14
2019-01-30T01:11:17.753Z,1.02
2019-01-30T01:12:17.748Z,1.17
2019-01-30T01:13:17.794Z,1.04
2019-01-30T01:14:17.729Z,1.18
2019-01-30T01:15:17.716Z,1.15
2019-01-30T01:16:17.700Z,1.18
2019-01-30T01:17:17.694Z,1.22
2019-01-30T01:18:17.690Z,1.21
2019-01-30T01:19:17.734Z,1.32
2019-01-30T01:20:17.666Z,1.24
2019-01-30T01:21:17.652Z,1.32
2019-01-30T01:22:17.641Z,1.33
2019-01-30T01:23:17.627Z,1.35
2019-01-30T01:24:17.675Z,1.33
2019-01-30T01:25:17.625Z,1.28
2019-01-30T01:26:17.597Z,1.26
2019-01-30T01:27:17.596Z,1.18
2019-01-30T01:28:17.581Z,1.24
2019-01-30T01:29:17.571Z,1.20
2019-01-30T01:30:24.864Z,1.22
2019-01-30T01:31:18.598Z,1.32
2019-01-30T01:32:17.539Z,1.36
2019-01-30T01:33:17.533Z,1.38
2019-01-30T01:34:17.517Z,1.29
2019-01-30T01:35:17.597Z,1.38
2019-01-30T01:36:17.497Z,1.26
2019-01-30T01:37:17.549Z,1.21
2019-01-30T01:38:17.478Z,1.15
2019-01-30T01:39:17.465Z,1.20
2019-01-30T01:40:17.459Z,1.18
2019-01-30T01:41:17.443Z,1.14
2019-01-30T01:42:17.430Z,1.24
2019-01-30T01:43:17.479Z,1.18
2019-01-30T01:44:17.411Z,1.28
2019-01-30T01:45:17.402Z,1.30
2019-01-30T01:46:17.395Z,1.29
2019-01-30T01:47:17.376Z,1.33
2019-01-30T01:48:17.373Z,1.32
2019-01-30T01:49:17.466Z,1.30
2019-01-30T01:50:17.354Z,1.32
2019-01-30T01:51:17.340Z,1.33
2019-01-30T01:52:17.331Z,1.36
2019-01-30T01:53:17.315Z,1.26
2019-01-30T01:54:17.315Z,1.21
2019-01-30T01:55:17.347Z,1.24
2019-01-30T01:56:17.289Z,1.17
2019-01-30T01:57:17.273Z,1.26
2019-01-30T01:58:17.263Z,1.28
2019-01-30T01:59:17.257Z,1.38
2019-01-30T02:00:17.245Z,1.28
2019-01-30T02:01:17.282Z,1.28
2019-01-30T02:02:17.228Z,1.35
2019-01-30T02:03:17.215Z,1.28
2019-01-30T02:04:17.202Z,1.26
2019-01-30T02:05:17.196Z,1.28
2019-01-30T02:06:17.186Z,1.29
2019-01-30T02:07:17.228Z,1.15
2019-01-30T02:08:17.158Z,1.20
2019-01-30T02:09:17.148Z,1.17
2019-01-30T02:10:17.141Z,1.15
2019-01-30T02:11:17.130Z,1.18
2019-01-30T02:12:17.116Z,1.15
2019-01-30T02:13:17.168Z,1.15
2019-01-30T02:14:17.102Z,1.20
2019-01-30T02:15:17.084Z,1.15
2019-01-30T02:16:17.078Z,1.10
2019-01-30T02:17:17.067Z,1.10
2019-01-30T02:18:17.052Z,1.24
2019-01-30T02:19:17.106Z,1.32
2019-01-30T02:20:17.037Z,1.24
2019-01-30T02:21:17.030Z,1.26
2019-01-30T02:22:17.014Z,1.29
2019-01-30T02:23:17.007Z,1.32
2019-01-30T02:24:16.992Z,1.30
2019-01-30T02:25:17.140Z,1.38
2019-01-30T02:26:16.973Z,1.40
2019-01-30T02:27:16.961Z,1.44
2019-01-30T02:28:16.973Z,1.51
2019-01-30T02:29:16.945Z,1.40
2019-01-30T02:30:17.067Z,1.38
2019-01-30T02:31:16.948Z,1.44
2019-01-30T02:32:16.914Z,1.38
2019-01-30T02:33:16.899Z,1.36
2019-01-30T02:34:16.884Z,1.44
2019-01-30T02:35:16.877Z,1.39
2019-01-30T02:36:16.873Z,1.44
2019-01-30T02:37:16.874Z,1.40
2019-01-30T02:38:16.847Z,1.32
2019-01-30T02:39:16.839Z,1.42
2019-01-30T02:40:16.825Z,1.36
2019-01-30T02:41:16.817Z,1.38
2019-01-30T02:42:16.808Z,1.42
2019-01-30T02:43:16.822Z,1.36
2019-01-30T02:44:16.785Z,1.38
2019-01-30T02:45:16.776Z,1.39
2019-01-30T02:46:16.766Z,1.46
2019-01-30T02:47:16.753Z,1.50
2019-01-30T02:48:16.738Z,1.54
2019-01-30T02:49:16.758Z,1.61
2019-01-30T02:50:16.719Z,1.60
2019-01-30T02:51:16.714Z,1.64
2019-01-30T02:52:16.702Z,1.65
2019-01-30T02:53:16.695Z,1.57
2019-01-30T02:54:16.684Z,1.66
2019-01-30T02:55:16.708Z,1.51
2019-01-30T02:56:16.654Z,1.56
2019-01-30T02:57:16.650Z,1.64
2019-01-30T02:58:16.648Z,1.57
2019-01-30T02:59:16.628Z,1.68
2019-01-30T03:00:16.626Z,1.58
2019-01-30T03:01:16.632Z,1.58
2019-01-30T03:02:16.593Z,1.58
2019-01-30T03:03:16.585Z,1.64
2019-01-30T03:04:16.577Z,1.72
2019-01-30T03:05:16.567Z,1.68
2019-01-30T03:06:16.558Z,1.68
2019-01-30T03:07:16.558Z,1.61
2019-01-30T03:08:16.532Z,1.65
2019-01-30T03:09:16.526Z,1.64
2019-01-30T03:10:16.512Z,1.65
2019-01-30T03:11:16.497Z,1.69
2019-01-30T03:12:16.495Z,1.69
2019-01-30T03:13:16.979Z,1.57
2019-01-30T03:14:16.475Z,1.61
2019-01-30T03:15:16.461Z,1.66
2019-01-30T03:16:16.457Z,1.69
2019-01-30T03:17:16.442Z,1.65
2019-01-30T03:18:16.426Z,1.69
2019-01-30T03:19:16.530Z,1.71
2019-01-30T03:20:16.410Z,1.71
2019-01-30T03:21:16.401Z,1.76
2019-01-30T03:22:16.392Z,1.71
2019-01-30T03:23:16.383Z,1.61
2019-01-30T03:24:16.374Z,1.75
2019-01-30T03:25:16.396Z,1.60
2019-01-30T03:26:16.350Z,1.69
2019-01-30T03:27:16.338Z,1.69
2019-01-30T03:28:16.328Z,1.68
2019-01-30T03:29:16.324Z,1.74
2019-01-30T03:30:16.313Z,1.61
2019-01-30T03:31:18.944Z,1.64
2019-01-30T03:32:16.287Z,1.66
2019-01-30T03:33:16.286Z,1.61
2019-01-30T03:34:16.267Z,1.60
2019-01-30T03:35:16.254Z,1.58
2019-01-30T03:36:16.241Z,1.69
2019-01-30T03:37:16.279Z,1.68
2019-01-30T03:38:16.220Z,1.69
2019-01-30T03:39:16.216Z,1.64
2019-01-30T03:40:16.208Z,1.71
2019-01-30T03:41:23.230Z,1.58
2019-01-30T03:42:16.182Z,1.58
2019-01-30T03:43:16.184Z,1.71
2019-01-30T03:44:16.156Z,1.58
2019-01-30T03:45:16.156Z,1.71
2019-01-30T03:46:16.137Z,1.71
2019-01-30T03:47:16.140Z,1.76
2019-01-30T03:48:16.120Z,1.84
2019-01-30T03:49:16.218Z,1.82
2019-01-30T03:50:16.119Z,1.87
2019-01-30T03:51:16.111Z,1.74
2019-01-30T03:52:16.075Z,1.74
2019-01-30T03:53:16.085Z,1.68
2019-01-30T03:54:16.069Z,1.69
2019-01-30T03:55:16.084Z,1.64
2019-01-30T03:56:16.037Z,1.64
2019-01-30T03:57:16.034Z,1.61
2019-01-30T03:58:16.015Z,1.64
2019-01-30T03:59:16.024Z,1.65
2019-01-30T04:00:16.006Z,1.58
2019-01-30T04:01:26.308Z,1.65
2019-01-30T04:02:16.984Z,1.61
2019-01-30T04:03:15.979Z,1.64
2019-01-30T04:04:15.961Z,1.60
2019-01-30T04:05:15.965Z,1.61
2019-01-30T04:06:15.942Z,1.71
2019-01-30T04:07:15.952Z,1.82
2019-01-30T04:08:15.913Z,1.69
2019-01-30T04:09:15.910Z,1.71
2019-01-30T04:10:15.894Z,1.68
2019-01-30T04:11:15.884Z,1.65
2019-01-30T04:12:15.877Z,1.71
2019-01-30T04:13:15.898Z,1.75
2019-01-30T04:14:15.859Z,1.68
2019-01-30T04:15:15.864Z,1.78
2019-01-30T04:16:15.835Z,1.75
2019-01-30T04:17:15.830Z,1.75
2019-01-30T04:18:15.830Z,1.78
2019-01-30T04:19:15.927Z,1.89
2019-01-30T04:20:15.799Z,1.79
2019-01-30T04:21:15.787Z,1.92
2019-01-30T04:22:15.771Z,1.92
2019-01-30T04:23:15.772Z,1.92
2019-01-30T04:24:15.752Z,1.83
2019-01-30T04:25:15.769Z,1.92
2019-01-30T04:26:15.726Z,1.93
2019-01-30T04:27:15.732Z,1.87
2019-01-30T04:28:15.707Z,1.90
2019-01-30T04:29:15.695Z,1.94
2019-01-30T04:30:15.691Z,1.93
2019-01-30T04:31:15.738Z,1.84
2019-01-30T04:32:15.678Z,2.01
2019-01-30T04:33:15.669Z,2.02
2019-01-30T04:34:15.642Z,2.04
2019-01-30T04:35:15.636Z,2.06
2019-01-30T04:36:15.639Z,2.22
2019-01-30T04:37:15.661Z,2.23
2019-01-30T04:38:15.614Z,2.26
2019-01-30T04:39:15.614Z,2.26
2019-01-30T04:40:15.585Z,2.29
2019-01-30T04:41:15.590Z,2.26
2019-01-30T04:42:15.572Z,2.33
2019-01-30T04:43:15.588Z,2.29
2019-01-30T04:44:15.542Z,2.23
2019-01-30T04:45:15.533Z,2.11
2019-01-30T04:46:15.532Z,2.11
2019-01-30T04:47:15.527Z,2.11
2019-01-30T04:48:15.510Z,2.26
2019-01-30T04:49:15.523Z,2.44
2019-01-30T04:50:15.502Z,2.45
2019-01-30T04:51:15.471Z,2.55
2019-01-30T04:52:15.469Z,2.55
2019-01-30T04:53:15.443Z,2.55
2019-01-30T04:54:15.455Z,2.58
2019-01-30T04:55:15.456Z,2.55
2019-01-30T04:56:15.444Z,2.55
2019-01-30T04:57:15.420Z,2.58
2019-01-30T04:58:15.408Z,2.58
2019-01-30T04:59:15.394Z,2.60
2019-01-30T05:00:15.386Z,2.58
2019-01-30T05:01:15.387Z,2.60
2019-01-30T05:02:15.361Z,2.60
2019-01-30T05:03:15.346Z,2.59
2019-01-30T05:04:15.336Z,2.69
2019-01-30T05:05:15.345Z,2.66
2019-01-30T05:06:15.313Z,2.72
2019-01-30T05:07:15.335Z,2.72
2019-01-30T05:08:15.295Z,2.67
2019-01-30T05:09:15.285Z,2.72
2019-01-30T05:10:15.302Z,2.69
2019-01-30T05:11:15.278Z,2.83
2019-01-30T05:12:15.256Z,2.91
2019-01-30T05:13:15.297Z,2.88
2019-01-30T05:14:15.283Z,2.88
2019-01-30T05:15:15.234Z,2.88
2019-01-30T05:16:15.215Z,2.91
2019-01-30T05:17:15.212Z,2.95
2019-01-30T05:18:15.191Z,2.91
2019-01-30T05:19:15.218Z,2.90
2019-01-30T05:20:15.211Z,2.90
2019-01-30T05:21:15.281Z,2.96
2019-01-30T05:22:15.153Z,3.11
2019-01-30T05:23:15.140Z,3.40
2019-01-30T05:24:15.152Z,3.63
2019-01-30T05:25:15.134Z,3.82
2019-01-30T05:26:15.111Z,4.07
2019-01-30T05:27:15.105Z,4.07
2019-01-30T05:28:15.127Z,3.94
2019-01-30T05:29:15.082Z,4.04
2019-01-30T05:30:15.092Z,4.07
2019-01-30T05:31:15.083Z,4.04
2019-01-30T05:32:15.051Z,4.07
2019-01-30T05:33:15.031Z,4.15
2019-01-30T05:34:15.029Z,4.14
2019-01-30T05:35:15.025Z,4.18
2019-01-30T05:36:15.019Z,4.22
2019-01-30T05:37:15.016Z,4.22
2019-01-30T05:38:14.989Z,4.21
2019-01-30T05:39:14.982Z,4.21
2019-01-30T05:40:14.974Z,4.21
2019-01-30T05:41:14.959Z,4.22
2019-01-30T05:42:14.951Z,4.18
2019-01-30T05:43:14.957Z,4.14
2019-01-30T05:44:14.918Z,4.14
2019-01-30T05:45:14.915Z,4.02
2019-01-30T05:46:14.902Z,4.12
2019-01-30T05:47:14.889Z,4.17
2019-01-30T05:48:14.883Z,4.15
2019-01-30T05:49:14.873Z,4.17
2019-01-30T05:50:14.864Z,4.15
2019-01-30T05:51:14.894Z,4.04
2019-01-30T05:52:14.832Z,4.04
2019-01-30T05:53:14.835Z,4.04
2019-01-30T05:54:14.819Z,4.02
2019-01-30T05:55:14.824Z,4.02
2019-01-30T05:56:14.790Z,4.02
2019-01-30T05:57:14.779Z,4.00
2019-01-30T05:58:14.775Z,4.03
2019-01-30T05:59:14.759Z,4.03
2019-01-30T06:00:14.771Z,4.03
2019-01-30T06:01:14.803Z,4.00
2019-01-30T06:02:15.852Z,3.93
2019-01-30T06:03:14.751Z,3.86
2019-01-30T06:04:14.758Z,3.82
2019-01-30T06:05:14.748Z,3.76
2019-01-30T06:06:14.724Z,3.72
2019-01-30T06:07:14.719Z,3.74
2019-01-30T06:08:14.710Z,3.66
2019-01-30T06:09:14.715Z,3.58
2019-01-30T06:10:14.702Z,3.51
2019-01-30T06:11:14.643Z,3.45
2019-01-30T06:12:14.620Z,3.40
2019-01-30T06:13:14.623Z,3.40
2019-01-30T06:14:14.611Z,3.40
2019-01-30T06:15:14.640Z,3.43
2019-01-30T06:16:14.577Z,3.42
2019-01-30T06:17:14.570Z,3.48
2019-01-30T06:18:14.567Z,3.45
2019-01-30T06:19:14.580Z,3.48
2019-01-30T06:20:14.529Z,3.49
2019-01-30T06:21:14.526Z,3.64
2019-01-30T06:22:14.526Z,3.69
2019-01-30T06:23:14.513Z,3.75
2019-01-30T06:24:14.510Z,3.72
2019-01-30T06:25:14.529Z,3.67
2019-01-30T06:26:14.471Z,3.76
2019-01-30T06:27:14.453Z,3.78
2019-01-30T06:28:14.450Z,3.69
2019-01-30T06:29:14.450Z,3.71
2019-01-30T06:30:14.430Z,3.76
2019-01-30T06:31:14.439Z,3.78
2019-01-30T06:32:21.685Z,3.76
2019-01-30T06:33:15.393Z,3.74
2019-01-30T06:34:14.390Z,3.75
2019-01-30T06:35:14.376Z,3.82
2019-01-30T06:36:14.370Z,3.84
2019-01-30T06:37:14.364Z,3.84
2019-01-30T06:38:14.338Z,3.84
2019-01-30T06:39:14.329Z,3.82
2019-01-30T06:40:14.330Z,3.72
2019-01-30T06:41:14.316Z,3.76
2019-01-30T06:42:14.299Z,3.71
2019-01-30T06:43:14.303Z,3.78
2019-01-30T06:44:14.281Z,3.69
2019-01-30T06:45:14.267Z,3.69
2019-01-30T06:46:14.261Z,3.71
2019-01-30T06:47:14.245Z,3.53
2019-01-30T06:48:14.235Z,3.56
2019-01-30T06:49:14.270Z,3.43
2019-01-30T06:50:14.219Z,3.42
2019-01-30T06:51:14.217Z,3.39
2019-01-30T06:52:14.200Z,3.29
2019-01-30T06:53:14.203Z,3.27
2019-01-30T06:54:14.174Z,3.26
2019-01-30T06:55:14.181Z,3.24
2019-01-30T06:56:14.150Z,3.27
2019-01-30T06:57:14.133Z,3.35
2019-01-30T06:58:14.133Z,3.34
2019-01-30T06:59:14.117Z,3.29
2019-01-30T07:00:14.108Z,3.32
2019-01-30T07:01:14.133Z,3.34
2019-01-30T07:02:14.079Z,3.34
2019-01-30T07:03:14.079Z,3.27
2019-01-30T07:04:14.069Z,3.26
2019-01-30T07:05:14.053Z,3.27
2019-01-30T07:06:14.044Z,3.23
2019-01-30T07:07:14.050Z,3.23
2019-01-30T07:08:14.018Z,3.23
2019-01-30T07:09:14.013Z,3.27
2019-01-30T07:10:14.003Z,3.30
2019-01-30T07:11:13.990Z,3.27
2019-01-30T07:12:13.986Z,3.46
2019-01-30T07:13:13.986Z,3.43
2019-01-30T07:14:14.052Z,3.58
2019-01-30T07:15:13.948Z,3.67
2019-01-30T07:16:13.967Z,3.72
2019-01-30T07:17:13.930Z,3.72
2019-01-30T07:18:13.967Z,3.81
2019-01-30T07:19:13.928Z,3.84
2019-01-30T07:20:13.896Z,3.92
2019-01-30T07:21:13.882Z,4.03
2019-01-30T07:22:13.871Z,4.02
2019-01-30T07:23:13.856Z,4.00
2019-01-30T07:24:13.855Z,4.00
2019-01-30T07:25:13.858Z,3.90
2019-01-30T07:26:13.913Z,3.89
2019-01-30T07:27:13.817Z,3.93
2019-01-30T07:28:13.818Z,3.86
2019-01-30T07:29:13.803Z,3.92
2019-01-30T07:30:13.788Z,3.86
2019-01-30T07:31:13.823Z,3.85
2019-01-30T07:32:13.773Z,3.93
2019-01-30T07:33:13.757Z,3.99
2019-01-30T07:34:13.754Z,4.03
2019-01-30T07:35:13.734Z,4.02
2019-01-30T07:36:13.721Z,4.02
2019-01-30T07:37:13.728Z,3.90
2019-01-30T07:38:13.702Z,3.92
2019-01-30T07:39:13.705Z,3.97
2019-01-30T07:40:13.673Z,3.97
2019-01-30T07:41:13.661Z,4.14
2019-01-30T07:42:13.657Z,4.10
2019-01-30T07:43:13.670Z,4.00
2019-01-30T07:44:13.644Z,4.02
2019-01-30T07:45:13.638Z,4.00
2019-01-30T07:46:13.613Z,4.00
2019-01-30T07:47:13.603Z,4.00
2019-01-30T07:48:13.594Z,4.12
2019-01-30T07:49:13.603Z,4.18
2019-01-30T07:50:13.572Z,4.21
2019-01-30T07:51:15.792Z,4.17
2019-01-30T07:52:13.556Z,4.22
2019-01-30T07:53:13.543Z,4.20
2019-01-30T07:54:13.530Z,4.15
2019-01-30T07:55:13.543Z,4.14
2019-01-30T07:56:13.517Z,4.02
2019-01-30T07:57:13.518Z,4.00
2019-01-30T07:58:13.489Z,4.07
2019-01-30T07:59:13.476Z,3.99
2019-01-30T08:00:13.466Z,4.04
2019-01-30T08:01:13.466Z,3.94
2019-01-30T08:02:13.438Z,4.21
2019-01-30T08:03:13.457Z,4.07
2019-01-30T08:04:13.421Z,4.21
2019-01-30T08:05:13.418Z,4.00
2019-01-30T08:06:13.408Z,4.00
2019-01-30T08:07:13.412Z,4.11
2019-01-30T08:08:13.382Z,4.02
2019-01-30T08:09:13.394Z,4.17
2019-01-30T08:10:13.363Z,4.15
2019-01-30T08:11:13.359Z,4.17
2019-01-30T08:12:13.344Z,4.18
2019-01-30T08:13:13.353Z,4.17
2019-01-30T08:14:13.327Z,4.20
2019-01-30T08:15:13.305Z,4.12
2019-01-30T08:16:13.295Z,4.15
2019-01-30T08:17:13.292Z,4.21
2019-01-30T08:18:13.280Z,4.24
2019-01-30T08:19:13.282Z,4.22
2019-01-30T08:20:13.263Z,4.33
2019-01-30T08:21:13.240Z,4.28
2019-01-30T08:22:13.231Z,4.40
2019-01-30T08:23:13.255Z,4.30
2019-01-30T08:24:13.268Z,4.26
2019-01-30T08:25:13.387Z,4.30
2019-01-30T08:26:13.382Z,4.30
2019-01-30T08:27:13.332Z,4.44
2019-01-30T08:28:15.880Z,4.65
2019-01-30T08:29:13.387Z,4.65
2019-01-30T08:30:22.304Z,4.84
2019-01-30T08:31:14.203Z,4.85
2019-01-30T08:32:13.422Z,5.10
2019-01-30T08:33:13.150Z,4.98
2019-01-30T08:34:13.120Z,5.02
2019-01-30T08:35:13.098Z,5.03
2019-01-30T08:36:13.088Z,5.10
2019-01-30T08:37:13.098Z,5.03
2019-01-30T08:38:13.076Z,5.15
2019-01-30T08:39:13.057Z,5.37
2019-01-30T08:40:13.043Z,5.51
2019-01-30T08:41:13.049Z,5.34
2019-01-30T08:42:13.025Z,5.42
2019-01-30T08:43:13.035Z,5.80
2019-01-30T08:44:13.012Z,6.07
2019-01-30T08:45:12.992Z,6.14
2019-01-30T08:46:12.986Z,5.98
2019-01-30T08:47:12.976Z,6.05
2019-01-30T08:48:12.967Z,6.10
2019-01-30T08:49:12.966Z,6.20
2019-01-30T08:50:12.944Z,5.62
2019-01-30T08:51:12.928Z,5.44
2019-01-30T08:52:12.915Z,5.45
2019-01-30T08:53:12.916Z,5.37
2019-01-30T08:54:12.905Z,5.36
2019-01-30T08:55:12.897Z,5.45
2019-01-30T08:56:12.883Z,5.54
2019-01-30T08:57:12.870Z,5.57
2019-01-30T08:58:12.854Z,5.44
2019-01-30T08:59:12.844Z,5.30
2019-01-30T09:00:12.839Z,5.48
2019-01-30T09:01:12.839Z,5.64
2019-01-30T09:02:12.815Z,5.57
2019-01-30T09:03:14.936Z,5.39
2019-01-30T09:04:12.796Z,5.30
2019-01-30T09:05:12.787Z,5.20
2019-01-30T09:06:12.768Z,5.31
2019-01-30T09:07:12.800Z,5.33
2019-01-30T09:08:12.751Z,5.26
2019-01-30T09:09:12.747Z,5.00
2019-01-30T09:10:12.722Z,5.15
2019-01-30T09:11:12.723Z,5.66
2019-01-30T09:12:12.703Z,6.05
2019-01-30T09:13:12.713Z,6.18
2019-01-30T09:14:12.683Z,6.00
2019-01-30T09:15:12.673Z,6.15
2019-01-30T09:16:12.660Z,5.96
2019-01-30T09:17:12.660Z,5.84
2019-01-30T09:18:12.671Z,5.95
2019-01-30T09:19:12.655Z,6.00
2019-01-30T09:20:12.619Z,5.82
2019-01-30T09:21:12.610Z,5.66
2019-01-30T09:22:12.603Z,5.63
2019-01-30T09:23:12.586Z,5.55
2019-01-30T09:24:12.583Z,5.26
2019-01-30T09:25:12.577Z,5.20
2019-01-30T09:26:12.558Z,5.15
2019-01-30T09:27:12.545Z,5.13
2019-01-30T09:28:12.539Z,5.26
2019-01-30T09:29:12.522Z,5.45
2019-01-30T09:30:12.520Z,5.46
2019-01-30T09:31:12.516Z,5.36
2019-01-30T09:32:12.500Z,5.44
2019-01-30T09:33:12.499Z,5.26
2019-01-30T09:34:12.472Z,5.16
2019-01-30T09:35:12.462Z,5.23
2019-01-30T09:36:12.456Z,5.42
2019-01-30T09:37:12.463Z,5.73
2019-01-30T09:38:12.435Z,5.80
2019-01-30T09:39:12.417Z,5.64
2019-01-30T09:40:12.420Z,5.31
2019-01-30T09:41:19.437Z,5.18
2019-01-30T09:42:12.382Z,5.08
2019-01-30T09:43:12.393Z,5.45
2019-01-30T09:44:12.363Z,5.73
2019-01-30T09:45:12.365Z,5.82
2019-01-30T09:46:12.346Z,5.60
2019-01-30T09:47:12.342Z,5.69
2019-01-30T09:48:12.425Z,5.80
2019-01-30T09:49:12.328Z,5.59
2019-01-30T09:50:12.302Z,5.16
2019-01-30T09:51:12.319Z,5.10
2019-01-30T09:52:12.285Z,5.06
2019-01-30T09:53:12.269Z,5.13
2019-01-30T09:54:12.256Z,5.45
2019-01-30T09:55:12.269Z,5.75
2019-01-30T09:56:12.237Z,6.02
2019-01-30T09:57:12.228Z,5.85
2019-01-30T09:58:12.218Z,5.73
2019-01-30T09:59:12.209Z,5.77
2019-01-30T10:00:12.194Z,5.45
2019-01-30T10:01:12.209Z,5.30
2019-01-30T10:02:12.175Z,5.24
2019-01-30T10:03:12.162Z,5.12
2019-01-30T10:04:12.158Z,5.16
2019-01-30T10:05:12.140Z,5.24
2019-01-30T10:06:12.127Z,5.41
2019-01-30T10:07:12.155Z,5.42
2019-01-30T10:08:12.128Z,5.52
2019-01-30T10:09:12.103Z,5.72
2019-01-30T10:10:12.092Z,5.82
2019-01-30T10:11:12.082Z,5.99
2019-01-30T10:12:12.083Z,6.29
2019-01-30T10:13:12.072Z,6.43
2019-01-30T10:14:12.050Z,6.33
2019-01-30T10:15:12.037Z,6.26
2019-01-30T10:16:12.030Z,6.17
2019-01-30T10:17:12.018Z,6.29
2019-01-30T10:18:12.005Z,6.37
2019-01-30T10:19:12.015Z,6.03
2019-01-30T10:20:11.984Z,6.03
2019-01-30T10:21:11.971Z,6.02
2019-01-30T10:22:11.961Z,5.99
2019-01-30T10:23:11.951Z,5.80
2019-01-30T10:24:11.942Z,5.72
2019-01-30T10:25:11.949Z,5.66
2019-01-30T10:26:11.917Z,5.59
2019-01-30T10:27:11.907Z,5.45
2019-01-30T10:28:16.560Z,5.48
2019-01-30T10:29:12.885Z,5.63
2019-01-30T10:30:11.872Z,6.28
2019-01-30T10:31:11.881Z,6.37
2019-01-30T10:32:11.855Z,6.07
2019-01-30T10:33:11.839Z,6.20
2019-01-30T10:34:11.830Z,6.55
2019-01-30T10:35:11.820Z,6.39
2019-01-30T10:36:11.811Z,6.85
2019-01-30T10:37:11.817Z,7.08
2019-01-30T10:38:11.788Z,7.44
2019-01-30T10:39:11.776Z,7.30
2019-01-30T10:40:11.771Z,7.22
2019-01-30T10:41:11.757Z,7.22
2019-01-30T10:42:11.740Z,7.01
2019-01-30T10:43:11.753Z,6.88
2019-01-30T10:44:11.724Z,7.00
2019-01-30T10:45:11.715Z,7.51
2019-01-30T10:46:11.702Z,7.74
2019-01-30T10:47:11.695Z,8.13
2019-01-30T10:48:11.676Z,8.14
2019-01-30T10:49:11.687Z,8.11
2019-01-30T10:50:11.661Z,7.75
2019-01-30T10:51:11.648Z,7.52
2019-01-30T10:52:11.635Z,7.68
2019-01-30T10:53:11.628Z,7.68
2019-01-30T10:54:11.622Z,7.63
2019-01-30T10:55:11.625Z,7.63
2019-01-30T10:56:11.594Z,7.05
2019-01-30T10:57:11.593Z,6.91
2019-01-30T10:58:11.574Z,6.73
2019-01-30T10:59:11.561Z,6.40
2019-01-30T11:00:11.555Z,6.31
2019-01-30T11:01:11.555Z,6.94
2019-01-30T11:02:11.529Z,7.36
2019-01-30T11:03:11.523Z,7.77
2019-01-30T11:04:12.062Z,8.01
2019-01-30T11:05:11.497Z,8.09
2019-01-30T11:06:11.491Z,7.89
2019-01-30T11:07:11.494Z,7.99
2019-01-30T11:08:11.469Z,7.95
2019-01-30T11:09:11.454Z,7.89
2019-01-30T11:10:11.446Z,7.56
2019-01-30T11:11:11.437Z,7.67
2019-01-30T11:12:11.423Z,7.48
2019-01-30T11:13:11.430Z,7.63
2019-01-30T11:14:11.401Z,7.80
2019-01-30T11:15:11.393Z,7.95
2019-01-30T11:16:11.383Z,7.99
2019-01-30T11:17:11.370Z,7.95
2019-01-30T11:18:11.364Z,7.99
2019-01-30T11:19:11.364Z,7.70
2019-01-30T11:20:11.338Z,7.49
2019-01-30T11:21:11.326Z,7.33
2019-01-30T11:22:11.319Z,7.63
2019-01-30T11:23:11.303Z,7.73
2019-01-30T11:24:11.296Z,7.77
2019-01-30T11:25:11.295Z,7.92
2019-01-30T11:26:11.271Z,7.93
2019-01-30T11:27:11.264Z,7.88
2019-01-30T11:28:11.255Z,7.96
2019-01-30T11:29:11.243Z,8.19
2019-01-30T11:30:11.230Z,7.95
2019-01-30T11:31:11.237Z,8.04
2019-01-30T11:32:11.210Z,8.22
2019-01-30T11:33:11.195Z,8.07
2019-01-30T11:34:11.185Z,8.36
2019-01-30T11:35:11.172Z,8.46
2019-01-30T11:36:11.163Z,8.46
2019-01-30T11:37:11.189Z,8.46
2019-01-30T11:38:11.147Z,8.80
2019-01-30T11:39:11.130Z,8.98
2019-01-30T11:40:11.121Z,9.48
2019-01-30T11:41:11.111Z,9.41
2019-01-30T11:42:11.100Z,9.34
2019-01-30T11:43:11.106Z,9.45
2019-01-30T11:44:11.077Z,9.23
2019-01-30T11:45:11.069Z,8.98
2019-01-30T11:46:11.060Z,8.21
2019-01-30T11:47:11.047Z,8.25
2019-01-30T11:48:11.035Z,7.88
2019-01-30T11:49:11.038Z,7.88
2019-01-30T11:50:11.016Z,7.19
2019-01-30T11:51:11.006Z,6.90
2019-01-30T11:52:10.992Z,7.04
2019-01-30T11:53:10.983Z,7.11
2019-01-30T11:54:10.974Z,7.08
2019-01-30T11:55:10.976Z,7.04
2019-01-30T11:56:10.950Z,7.26
2019-01-30T11:57:10.941Z,7.11
2019-01-30T11:58:10.929Z,7.23
2019-01-30T11:59:10.925Z,7.23
2019-01-30T12:00:10.909Z,6.95
2019-01-30T12:01:10.909Z,6.95
2019-01-30T12:02:10.886Z,7.04
2019-01-30T12:03:10.874Z,7.15
2019-01-30T12:04:17.647Z,6.86
2019-01-30T12:05:11.852Z,6.79
2019-01-30T12:06:10.845Z,6.76
2019-01-30T12:07:10.851Z,6.78
2019-01-30T12:08:10.822Z,6.91
2019-01-30T12:09:10.808Z,6.95
2019-01-30T12:10:10.798Z,6.95
2019-01-30T12:11:10.791Z,6.85
2019-01-30T12:12:10.779Z,6.86
2019-01-30T12:13:10.783Z,7.03
2019-01-30T12:14:10.759Z,7.15
2019-01-30T12:15:10.747Z,7.34
2019-01-30T12:16:10.734Z,7.31
2019-01-30T12:17:10.724Z,7.31
2019-01-30T12:18:10.709Z,7.23
2019-01-30T12:19:10.719Z,7.52
2019-01-30T12:20:10.686Z,7.73
2019-01-30T12:21:10.680Z,7.99
2019-01-30T12:22:10.673Z,7.92
2019-01-30T12:23:10.660Z,7.59
2019-01-30T12:24:10.651Z,7.77
2019-01-30T12:25:10.657Z,7.63
2019-01-30T12:26:10.625Z,7.58
2019-01-30T12:27:10.615Z,7.75
2019-01-30T12:28:10.609Z,7.89
2019-01-30T12:29:10.597Z,8.24
2019-01-30T12:30:10.583Z,8.36
2019-01-30T12:31:10.592Z,8.26
2019-01-30T12:32:10.566Z,8.19
2019-01-30T12:33:10.551Z,8.14
2019-01-30T12:34:10.544Z,8.16
2019-01-30T12:35:10.531Z,8.16
2019-01-30T12:36:10.522Z,8.10
2019-01-30T12:37:10.548Z,8.04
2019-01-30T12:38:10.503Z,7.96
2019-01-30T12:39:10.490Z,8.17
2019-01-30T12:40:10.477Z,8.13
2019-01-30T12:41:10.467Z,8.09
2019-01-30T12:42:10.455Z,8.31
2019-01-30T12:43:10.461Z,8.40
2019-01-30T12:44:10.437Z,8.44
2019-01-30T12:45:10.426Z,8.36
2019-01-30T12:46:10.417Z,8.44
2019-01-30T12:47:19.490Z,8.61
2019-01-30T12:48:11.413Z,8.69
2019-01-30T12:49:10.384Z,9.11
2019-01-30T12:50:10.371Z,9.45
2019-01-30T12:51:10.364Z,9.56
2019-01-30T12:52:10.358Z,9.84
2019-01-30T12:53:10.342Z,9.90
2019-01-30T12:54:10.351Z,9.88
2019-01-30T12:55:10.323Z,9.53
2019-01-30T12:56:10.307Z,9.42
2019-01-30T12:57:10.297Z,9.32
2019-01-30T12:58:10.288Z,8.92
2019-01-30T12:59:10.274Z,8.85
2019-01-30T13:00:10.367Z,8.67
2019-01-30T13:01:10.258Z,8.34
2019-01-30T13:02:10.246Z,8.03
2019-01-30T13:03:10.233Z,7.77
2019-01-30T13:04:10.223Z,7.75
2019-01-30T13:05:10.211Z,7.70
2019-01-30T13:06:10.222Z,7.41
2019-01-30T13:07:10.197Z,7.03
2019-01-30T13:08:10.184Z,7.08
2019-01-30T13:09:10.168Z,6.88
2019-01-30T13:10:10.169Z,6.90
2019-01-30T13:11:10.146Z,6.91
2019-01-30T13:12:10.149Z,6.93
2019-01-30T13:13:10.124Z,6.90
2019-01-30T13:14:10.116Z,6.75
2019-01-30T13:15:10.110Z,6.54
2019-01-30T13:16:10.095Z,6.40
2019-01-30T13:17:10.082Z,6.29
2019-01-30T13:18:17.922Z,6.28